sensor_id;sensor_type;location;lat;lon;timestamp;temperature;humidity
67364;HTU21D;54250;45.572;38.086;2022-07-29T00:00:47;19.62;95.84
67364;HTU21D;54250;45.572;38.086;2022-07-29T00:03:13;19.66;95.84
67364;HTU21D;54250;45.572;38.086;2022-07-29T00:05:40;19.69;95.79
67364;HTU21D;54250;45.572;38.086;2022-07-29T00:08:07;19.73;95.82
67364;HTU21D;54250;45.572;38.086;2022-07-29T00:10:34;19.70;95.85
67364;HTU21D;54250;45.572;38.086;2022-07-29T00:13:00;19.63;96.01
67364;HTU21D;54250;45.572;38.086;2022-07-29T00:15:27;19.61;96.10
67364;HTU21D;54250;45.572;38.086;2022-07-29T00:17:53;19.60;96.12
67364;HTU21D;54250;45.572;38.086;2022-07-29T00:20:19;19.63;96.08
67364;HTU21D;54250;45.572;38.086;2022-07-29T00:22:46;19.66;96.04
67364;HTU21D;54250;45.572;38.086;2022-07-29T00:25:12;19.71;96.02
67364;HTU21D;54250;45.572;38.086;2022-07-29T00:27:39;19.73;95.92
67364;HTU21D;54250;45.572;38.086;2022-07-29T00:30:07;19.75;95.97
67364;HTU21D;54250;45.572;38.086;2022-07-29T00:32:34;19.79;95.92
67364;HTU21D;54250;45.572;38.086;2022-07-29T00:35:00;19.80;96.00
67364;HTU21D;54250;45.572;38.086;2022-07-29T00:37:44;19.84;95.92
67364;HTU21D;54250;45.572;38.086;2022-07-29T00:40:10;19.83;96.01
67364;HTU21D;54250;45.572;38.086;2022-07-29T00:42:47;19.85;96.08
67364;HTU21D;54250;45.572;38.086;2022-07-29T00:45:14;19.88;96.10
67364;HTU21D;54250;45.572;38.086;2022-07-29T00:47:41;19.94;96.10
67364;HTU21D;54250;45.572;38.086;2022-07-29T00:50:09;19.96;96.09
67364;HTU21D;54250;45.572;38.086;2022-07-29T00:52:37;19.97;96.13
67364;HTU21D;54250;45.572;38.086;2022-07-29T00:55:06;19.96;96.23
67364;HTU21D;54250;45.572;38.086;2022-07-29T00:57:34;19.96;96.36
67364;HTU21D;54250;45.572;38.086;2022-07-29T01:00:00;19.96;96.49
67364;HTU21D;54250;45.572;38.086;2022-07-29T01:02:27;19.94;96.59
67364;HTU21D;54250;45.572;38.086;2022-07-29T01:04:53;19.95;96.68
67364;HTU21D;54250;45.572;38.086;2022-07-29T01:07:19;19.96;96.70
67364;HTU21D;54250;45.572;38.086;2022-07-29T01:09:45;19.96;96.76
67364;HTU21D;54250;45.572;38.086;2022-07-29T01:12:22;19.97;96.78
67364;HTU21D;54250;45.572;38.086;2022-07-29T01:14:49;19.97;96.79
67364;HTU21D;54250;45.572;38.086;2022-07-29T01:19:53;19.90;96.75
67364;HTU21D;54250;45.572;38.086;2022-07-29T01:25:40;19.71;96.86
67364;HTU21D;54250;45.572;38.086;2022-07-29T01:28:17;19.61;96.94
67364;HTU21D;54250;45.572;38.086;2022-07-29T01:30:49;19.59;97.00
67364;HTU21D;54250;45.572;38.086;2022-07-29T01:33:17;19.63;96.85
67364;HTU21D;54250;45.572;38.086;2022-07-29T01:38:57;19.65;96.54
67364;HTU21D;54250;45.572;38.086;2022-07-29T01:41:26;19.61;96.55
67364;HTU21D;54250;45.572;38.086;2022-07-29T01:43:59;19.57;96.61
67364;HTU21D;54250;45.572;38.086;2022-07-29T01:46:39;19.54;96.58
67364;HTU21D;54250;45.572;38.086;2022-07-29T01:49:18;19.53;96.55
67364;HTU21D;54250;45.572;38.086;2022-07-29T01:51:56;19.50;96.58
67364;HTU21D;54250;45.572;38.086;2022-07-29T01:54:37;19.44;96.64
67364;HTU21D;54250;45.572;38.086;2022-07-29T01:57:06;19.41;96.74
67364;HTU21D;54250;45.572;38.086;2022-07-29T01:59:34;19.41;96.73
67364;HTU21D;54250;45.572;38.086;2022-07-29T02:02:03;19.41;96.68
67364;HTU21D;54250;45.572;38.086;2022-07-29T02:04:32;19.38;96.68
67364;HTU21D;54250;45.572;38.086;2022-07-29T02:07:05;19.32;96.72
67364;HTU21D;54250;45.572;38.086;2022-07-29T02:09:34;19.27;96.80
67364;HTU21D;54250;45.572;38.086;2022-07-29T02:12:02;19.31;96.84
67364;HTU21D;54250;45.572;38.086;2022-07-29T02:14:33;19.39;96.65
67364;HTU21D;54250;45.572;38.086;2022-07-29T02:17:01;19.43;96.55
67364;HTU21D;54250;45.572;38.086;2022-07-29T02:19:29;19.42;96.60
67364;HTU21D;54250;45.572;38.086;2022-07-29T02:21:57;19.41;96.65
67364;HTU21D;54250;45.572;38.086;2022-07-29T02:24:24;19.36;96.73
67364;HTU21D;54250;45.572;38.086;2022-07-29T02:26:54;19.38;96.78
67364;HTU21D;54250;45.572;38.086;2022-07-29T02:29:25;19.42;96.72
67364;HTU21D;54250;45.572;38.086;2022-07-29T02:31:52;19.45;96.61
67364;HTU21D;54250;45.572;38.086;2022-07-29T02:34:20;19.53;96.57
67364;HTU21D;54250;45.572;38.086;2022-07-29T02:36:47;19.60;96.46
67364;HTU21D;54250;45.572;38.086;2022-07-29T02:39:15;19.72;96.43
67364;HTU21D;54250;45.572;38.086;2022-07-29T02:41:48;19.85;96.29
67364;HTU21D;54250;45.572;38.086;2022-07-29T02:44:19;19.99;96.09
67364;HTU21D;54250;45.572;38.086;2022-07-29T02:49:41;20.18;95.97
67364;HTU21D;54250;45.572;38.086;2022-07-29T02:55:34;20.56;95.59
67364;HTU21D;54250;45.572;38.086;2022-07-29T02:58:07;20.79;94.76
67364;HTU21D;54250;45.572;38.086;2022-07-29T03:00:37;21.09;94.42
67364;HTU21D;54250;45.572;38.086;2022-07-29T03:03:07;21.43;94.06
67364;HTU21D;54250;45.572;38.086;2022-07-29T03:05:35;21.73;93.78
67364;HTU21D;54250;45.572;38.086;2022-07-29T03:08:04;22.04;93.66
67364;HTU21D;54250;45.572;38.086;2022-07-29T03:10:31;22.33;93.33
67364;HTU21D;54250;45.572;38.086;2022-07-29T03:12:58;22.55;93.31
67364;HTU21D;54250;45.572;38.086;2022-07-29T03:15:24;22.93;92.89
67364;HTU21D;54250;45.572;38.086;2022-07-29T03:17:51;23.34;92.21
67364;HTU21D;54250;45.572;38.086;2022-07-29T03:20:18;23.74;91.52
67364;HTU21D;54250;45.572;38.086;2022-07-29T03:22:45;24.02;91.32
67364;HTU21D;54250;45.572;38.086;2022-07-29T03:25:17;24.30;91.02
67364;HTU21D;54250;45.572;38.086;2022-07-29T03:27:43;24.70;90.32
67364;HTU21D;54250;45.572;38.086;2022-07-29T03:30:11;24.98;89.89
67364;HTU21D;54250;45.572;38.086;2022-07-29T03:32:38;25.16;89.63
67364;HTU21D;54250;45.572;38.086;2022-07-29T03:35:04;25.60;88.64
67364;HTU21D;54250;45.572;38.086;2022-07-29T03:37:31;25.97;87.12
67364;HTU21D;54250;45.572;38.086;2022-07-29T03:39:58;25.93;87.33
67364;HTU21D;54250;45.572;38.086;2022-07-29T03:42:28;25.93;87.38
67364;HTU21D;54250;45.572;38.086;2022-07-29T03:44:57;26.01;87.25
67364;HTU21D;54250;45.572;38.086;2022-07-29T03:47:26;26.22;86.70
67364;HTU21D;54250;45.572;38.086;2022-07-29T03:50:02;26.68;85.63
67364;HTU21D;54250;45.572;38.086;2022-07-29T03:52:30;27.16;84.13
67364;HTU21D;54250;45.572;38.086;2022-07-29T03:54:57;27.65;82.68
67364;HTU21D;54250;45.572;38.086;2022-07-29T03:57:25;28.01;81.79
67364;HTU21D;54250;45.572;38.086;2022-07-29T03:59:53;28.74;79.88
67364;HTU21D;54250;45.572;38.086;2022-07-29T04:02:20;29.77;77.18
67364;HTU21D;54250;45.572;38.086;2022-07-29T04:04:47;30.78;74.15
67364;HTU21D;54250;45.572;38.086;2022-07-29T04:07:15;31.64;71.84
67364;HTU21D;54250;45.572;38.086;2022-07-29T04:09:41;32.55;69.55
67364;HTU21D;54250;45.572;38.086;2022-07-29T04:12:08;33.33;67.67
67364;HTU21D;54250;45.572;38.086;2022-07-29T04:14:34;34.05;65.87
67364;HTU21D;54250;45.572;38.086;2022-07-29T04:17:02;34.84;64.00
67364;HTU21D;54250;45.572;38.086;2022-07-29T04:19:28;35.43;62.49
67364;HTU21D;54250;45.572;38.086;2022-07-29T04:21:54;36.15;60.76
67364;HTU21D;54250;45.572;38.086;2022-07-29T04:24:20;36.59;59.48
67364;HTU21D;54250;45.572;38.086;2022-07-29T04:26:47;36.88;58.77
67364;HTU21D;54250;45.572;38.086;2022-07-29T04:29:13;37.02;58.05
67364;HTU21D;54250;45.572;38.086;2022-07-29T04:31:40;37.05;58.02
67364;HTU21D;54250;45.572;38.086;2022-07-29T04:34:07;37.34;57.19
67364;HTU21D;54250;45.572;38.086;2022-07-29T04:36:34;37.73;56.31
67364;HTU21D;54250;45.572;38.086;2022-07-29T04:39:01;37.93;55.56
67364;HTU21D;54250;45.572;38.086;2022-07-29T04:41:29;38.32;54.72
67364;HTU21D;54250;45.572;38.086;2022-07-29T04:43:55;38.82;53.52
67364;HTU21D;54250;45.572;38.086;2022-07-29T04:46:21;39.23;52.37
67364;HTU21D;54250;45.572;38.086;2022-07-29T04:48:48;39.04;52.27
67364;HTU21D;54250;45.572;38.086;2022-07-29T04:51:17;38.93;52.17
67364;HTU21D;54250;45.572;38.086;2022-07-29T04:53:43;38.85;52.40
67364;HTU21D;54250;45.572;38.086;2022-07-29T04:56:09;38.41;53.07
67364;HTU21D;54250;45.572;38.086;2022-07-29T04:58:35;38.44;52.62
67364;HTU21D;54250;45.572;38.086;2022-07-29T05:01:02;38.67;51.91
67364;HTU21D;54250;45.572;38.086;2022-07-29T05:03:28;39.12;50.73
67364;HTU21D;54250;45.572;38.086;2022-07-29T05:05:54;39.11;50.38
67364;HTU21D;54250;45.572;38.086;2022-07-29T05:08:20;39.20;50.52
67364;HTU21D;54250;45.572;38.086;2022-07-29T05:10:46;40.15;48.54
67364;HTU21D;54250;45.572;38.086;2022-07-29T05:13:12;40.22;48.33
67364;HTU21D;54250;45.572;38.086;2022-07-29T05:15:39;39.82;48.93
67364;HTU21D;54250;45.572;38.086;2022-07-29T05:18:05;39.42;49.42
67364;HTU21D;54250;45.572;38.086;2022-07-29T05:20:31;39.91;48.63
67364;HTU21D;54250;45.572;38.086;2022-07-29T05:22:59;40.43;47.42
67364;HTU21D;54250;45.572;38.086;2022-07-29T05:25:27;40.61;46.51
67364;HTU21D;54250;45.572;38.086;2022-07-29T05:27:53;41.22;45.35
67364;HTU21D;54250;45.572;38.086;2022-07-29T05:30:20;42.11;43.62
67364;HTU21D;54250;45.572;38.086;2022-07-29T05:32:46;43.08;42.00
67364;HTU21D;54250;45.572;38.086;2022-07-29T05:35:13;42.99;42.00
67364;HTU21D;54250;45.572;38.086;2022-07-29T05:37:40;43.08;41.81
67364;HTU21D;54250;45.572;38.086;2022-07-29T05:40:08;43.34;41.45
67364;HTU21D;54250;45.572;38.086;2022-07-29T05:42:35;43.67;40.38
67364;HTU21D;54250;45.572;38.086;2022-07-29T05:45:02;43.95;39.77
67364;HTU21D;54250;45.572;38.086;2022-07-29T05:47:28;44.05;39.05
67364;HTU21D;54250;45.572;38.086;2022-07-29T05:49:54;44.24;38.63
67364;HTU21D;54250;45.572;38.086;2022-07-29T05:52:21;44.64;37.99
67364;HTU21D;54250;45.572;38.086;2022-07-29T05:54:47;45.15;37.59
67364;HTU21D;54250;45.572;38.086;2022-07-29T05:57:21;45.59;36.94
67364;HTU21D;54250;45.572;38.086;2022-07-29T05:59:48;45.46;36.38
67364;HTU21D;54250;45.572;38.086;2022-07-29T06:02:15;44.95;37.10
67364;HTU21D;54250;45.572;38.086;2022-07-29T06:04:41;45.19;36.95
67364;HTU21D;54250;45.572;38.086;2022-07-29T06:07:07;45.21;36.29
67364;HTU21D;54250;45.572;38.086;2022-07-29T06:09:34;44.89;36.34
67364;HTU21D;54250;45.572;38.086;2022-07-29T06:12:01;44.95;36.15
67364;HTU21D;54250;45.572;38.086;2022-07-29T06:14:27;45.35;35.07
67364;HTU21D;54250;45.572;38.086;2022-07-29T06:16:54;44.62;36.08
67364;HTU21D;54250;45.572;38.086;2022-07-29T06:19:20;44.95;34.92
67364;HTU21D;54250;45.572;38.086;2022-07-29T06:21:47;44.98;34.76
67364;HTU21D;54250;45.572;38.086;2022-07-29T06:24:14;45.17;33.92
67364;HTU21D;54250;45.572;38.086;2022-07-29T06:26:41;45.33;33.41
67364;HTU21D;54250;45.572;38.086;2022-07-29T06:29:08;46.47;32.52
67364;HTU21D;54250;45.572;38.086;2022-07-29T06:31:36;46.43;31.73
67364;HTU21D;54250;45.572;38.086;2022-07-29T06:34:03;46.18;31.60
67364;HTU21D;54250;45.572;38.086;2022-07-29T06:36:29;46.60;30.80
67364;HTU21D;54250;45.572;38.086;2022-07-29T06:38:55;46.39;31.11
67364;HTU21D;54250;45.572;38.086;2022-07-29T06:41:21;46.61;30.20
67364;HTU21D;54250;45.572;38.086;2022-07-29T06:43:48;46.60;29.78
67364;HTU21D;54250;45.572;38.086;2022-07-29T06:46:17;47.07;29.09
67364;HTU21D;54250;45.572;38.086;2022-07-29T06:48:44;47.49;28.32
67364;HTU21D;54250;45.572;38.086;2022-07-29T06:51:11;47.62;28.61
67364;HTU21D;54250;45.572;38.086;2022-07-29T06:53:38;48.26;28.32
67364;HTU21D;54250;45.572;38.086;2022-07-29T06:56:06;48.50;27.76
67364;HTU21D;54250;45.572;38.086;2022-07-29T06:58:34;48.40;28.12
67364;HTU21D;54250;45.572;38.086;2022-07-29T07:01:02;49.04;27.89
67364;HTU21D;54250;45.572;38.086;2022-07-29T07:03:29;49.64;27.10
67364;HTU21D;54250;45.572;38.086;2022-07-29T07:05:55;50.19;27.04
67364;HTU21D;54250;45.572;38.086;2022-07-29T07:08:22;50.66;26.28
67364;HTU21D;54250;45.572;38.086;2022-07-29T07:10:50;50.52;26.42
67364;HTU21D;54250;45.572;38.086;2022-07-29T07:13:16;50.49;25.58
67364;HTU21D;54250;45.572;38.086;2022-07-29T07:15:44;50.47;25.06
67364;HTU21D;54250;45.572;38.086;2022-07-29T07:18:10;50.63;24.93
67364;HTU21D;54250;45.572;38.086;2022-07-29T07:20:37;51.07;24.80
67364;HTU21D;54250;45.572;38.086;2022-07-29T07:23:03;51.41;23.72
67364;HTU21D;54250;45.572;38.086;2022-07-29T07:25:30;49.74;24.92
67364;HTU21D;54250;45.572;38.086;2022-07-29T07:27:56;49.68;25.36
67364;HTU21D;54250;45.572;38.086;2022-07-29T07:30:22;49.92;25.07
67364;HTU21D;54250;45.572;38.086;2022-07-29T07:32:48;50.23;24.59
67364;HTU21D;54250;45.572;38.086;2022-07-29T07:35:14;50.51;24.43
67364;HTU21D;54250;45.572;38.086;2022-07-29T07:37:40;49.91;25.18
67364;HTU21D;54250;45.572;38.086;2022-07-29T07:40:08;49.94;24.72
67364;HTU21D;54250;45.572;38.086;2022-07-29T07:42:35;49.10;24.97
67364;HTU21D;54250;45.572;38.086;2022-07-29T07:45:01;49.05;25.81
67364;HTU21D;54250;45.572;38.086;2022-07-29T07:47:27;49.05;25.58
67364;HTU21D;54250;45.572;38.086;2022-07-29T07:49:53;49.54;25.44
67364;HTU21D;54250;45.572;38.086;2022-07-29T07:52:20;49.63;24.54
67364;HTU21D;54250;45.572;38.086;2022-07-29T07:54:47;49.75;24.40
67364;HTU21D;54250;45.572;38.086;2022-07-29T07:57:14;49.61;24.35
67364;HTU21D;54250;45.572;38.086;2022-07-29T07:59:41;49.80;24.03
67364;HTU21D;54250;45.572;38.086;2022-07-29T08:02:08;49.55;24.44
67364;HTU21D;54250;45.572;38.086;2022-07-29T08:04:35;48.72;24.81
67364;HTU21D;54250;45.572;38.086;2022-07-29T08:07:02;48.27;26.60
67364;HTU21D;54250;45.572;38.086;2022-07-29T08:09:28;48.96;26.04
67364;HTU21D;54250;45.572;38.086;2022-07-29T08:11:55;49.52;25.52
67364;HTU21D;54250;45.572;38.086;2022-07-29T08:14:21;50.03;25.92
67364;HTU21D;54250;45.572;38.086;2022-07-29T08:16:47;50.68;25.17
67364;HTU21D;54250;45.572;38.086;2022-07-29T08:19:14;51.18;24.67
67364;HTU21D;54250;45.572;38.086;2022-07-29T08:21:40;51.43;24.58
67364;HTU21D;54250;45.572;38.086;2022-07-29T08:24:06;51.15;24.43
67364;HTU21D;54250;45.572;38.086;2022-07-29T08:26:51;51.11;24.77
67364;HTU21D;54250;45.572;38.086;2022-07-29T08:29:17;51.40;24.86
67364;HTU21D;54250;45.572;38.086;2022-07-29T08:31:43;51.75;24.56
67364;HTU21D;54250;45.572;38.086;2022-07-29T08:34:11;51.86;23.77
67364;HTU21D;54250;45.572;38.086;2022-07-29T08:36:37;51.95;23.66
67364;HTU21D;54250;45.572;38.086;2022-07-29T08:39:04;51.98;23.10
67364;HTU21D;54250;45.572;38.086;2022-07-29T08:41:30;50.72;24.07
67364;HTU21D;54250;45.572;38.086;2022-07-29T08:43:57;49.99;23.86
67364;HTU21D;54250;45.572;38.086;2022-07-29T08:46:23;49.15;24.17
67364;HTU21D;54250;45.572;38.086;2022-07-29T08:48:49;49.16;24.53
67364;HTU21D;54250;45.572;38.086;2022-07-29T08:51:17;49.55;23.72
67364;HTU21D;54250;45.572;38.086;2022-07-29T08:53:46;49.02;24.25
67364;HTU21D;54250;45.572;38.086;2022-07-29T08:56:17;48.49;24.46
67364;HTU21D;54250;45.572;38.086;2022-07-29T08:58:47;48.28;25.16
67364;HTU21D;54250;45.572;38.086;2022-07-29T09:01:16;48.46;25.59
67364;HTU21D;54250;45.572;38.086;2022-07-29T09:03:44;48.74;25.34
67364;HTU21D;54250;45.572;38.086;2022-07-29T09:06:15;49.05;25.56
67364;HTU21D;54250;45.572;38.086;2022-07-29T09:08:42;49.20;25.79
67364;HTU21D;54250;45.572;38.086;2022-07-29T09:11:09;49.30;24.63
67364;HTU21D;54250;45.572;38.086;2022-07-29T09:13:37;49.29;24.74
67364;HTU21D;54250;45.572;38.086;2022-07-29T09:16:03;48.91;25.10
67364;HTU21D;54250;45.572;38.086;2022-07-29T09:18:41;48.77;26.36
67364;HTU21D;54250;45.572;38.086;2022-07-29T09:21:13;49.10;26.39
67364;HTU21D;54250;45.572;38.086;2022-07-29T09:24:12;49.33;26.39
67364;HTU21D;54250;45.572;38.086;2022-07-29T09:26:44;48.93;25.56
67364;HTU21D;54250;45.572;38.086;2022-07-29T09:29:14;48.16;27.11
67364;HTU21D;54250;45.572;38.086;2022-07-29T09:31:45;46.97;28.72
67364;HTU21D;54250;45.572;38.086;2022-07-29T09:34:14;45.46;30.71
67364;HTU21D;54250;45.572;38.086;2022-07-29T09:36:45;43.85;33.36
67364;HTU21D;54250;45.572;38.086;2022-07-29T09:39:36;42.49;34.90
67364;HTU21D;54250;45.572;38.086;2022-07-29T09:42:05;41.61;36.76
67364;HTU21D;54250;45.572;38.086;2022-07-29T09:44:45;40.98;36.95
67364;HTU21D;54250;45.572;38.086;2022-07-29T09:47:14;40.47;37.18
67364;HTU21D;54250;45.572;38.086;2022-07-29T09:52:19;39.45;38.24
67364;HTU21D;54250;45.572;38.086;2022-07-29T09:54:45;39.19;40.00
67364;HTU21D;54250;45.572;38.086;2022-07-29T09:57:26;39.07;39.78
67364;HTU21D;54250;45.572;38.086;2022-07-29T10:00:13;38.89;41.12
67364;HTU21D;54250;45.572;38.086;2022-07-29T10:02:41;38.69;42.58
67364;HTU21D;54250;45.572;38.086;2022-07-29T10:05:20;38.65;42.73
67364;HTU21D;54250;45.572;38.086;2022-07-29T10:07:51;38.52;42.39
67364;HTU21D;54250;45.572;38.086;2022-07-29T10:10:25;38.10;41.45
67364;HTU21D;54250;45.572;38.086;2022-07-29T10:12:57;38.00;42.68
67364;HTU21D;54250;45.572;38.086;2022-07-29T10:15:25;38.01;43.33
67364;HTU21D;54250;45.572;38.086;2022-07-29T10:17:52;37.99;43.25
67364;HTU21D;54250;45.572;38.086;2022-07-29T10:20:20;37.92;43.49
67364;HTU21D;54250;45.572;38.086;2022-07-29T10:22:47;37.88;41.54
67364;HTU21D;54250;45.572;38.086;2022-07-29T10:25:14;37.78;43.39
67364;HTU21D;54250;45.572;38.086;2022-07-29T10:27:41;37.77;43.19
67364;HTU21D;54250;45.572;38.086;2022-07-29T10:30:08;37.78;42.68
67364;HTU21D;54250;45.572;38.086;2022-07-29T10:38:30;37.81;43.16
67364;HTU21D;54250;45.572;38.086;2022-07-29T10:43:48;37.70;41.63
67364;HTU21D;54250;45.572;38.086;2022-07-29T10:46:17;37.35;42.77
67364;HTU21D;54250;45.572;38.086;2022-07-29T10:49:12;37.41;43.35
67364;HTU21D;54250;45.572;38.086;2022-07-29T10:52:02;37.47;43.89
67364;HTU21D;54250;45.572;38.086;2022-07-29T10:54:43;37.38;44.41
67364;HTU21D;54250;45.572;38.086;2022-07-29T10:57:14;37.35;44.07
67364;HTU21D;54250;45.572;38.086;2022-07-29T10:59:44;37.28;45.44
67364;HTU21D;54250;45.572;38.086;2022-07-29T11:05:20;37.04;45.16
67364;HTU21D;54250;45.572;38.086;2022-07-29T11:10:35;37.16;45.14
67364;HTU21D;54250;45.572;38.086;2022-07-29T11:13:01;37.00;45.48
67364;HTU21D;54250;45.572;38.086;2022-07-29T11:15:27;36.96;45.93
67364;HTU21D;54250;45.572;38.086;2022-07-29T11:20:36;37.00;46.70
67364;HTU21D;54250;45.572;38.086;2022-07-29T11:25:43;36.85;46.45
67364;HTU21D;54250;45.572;38.086;2022-07-29T11:28:21;36.67;46.92
67364;HTU21D;54250;45.572;38.086;2022-07-29T11:30:50;36.56;47.09
67364;HTU21D;54250;45.572;38.086;2022-07-29T11:33:33;36.45;47.73
67364;HTU21D;54250;45.572;38.086;2022-07-29T11:36:15;36.38;48.02
67364;HTU21D;54250;45.572;38.086;2022-07-29T11:38:41;36.24;48.37
67364;HTU21D;54250;45.572;38.086;2022-07-29T11:41:24;36.19;48.47
67364;HTU21D;54250;45.572;38.086;2022-07-29T11:43:55;36.17;48.15
67364;HTU21D;54250;45.572;38.086;2022-07-29T11:46:49;35.95;48.00
67364;HTU21D;54250;45.572;38.086;2022-07-29T11:49:23;35.92;48.49
67364;HTU21D;54250;45.572;38.086;2022-07-29T11:51:57;35.89;48.63
67364;HTU21D;54250;45.572;38.086;2022-07-29T11:54:32;35.80;48.65
67364;HTU21D;54250;45.572;38.086;2022-07-29T11:56:59;35.71;48.39
67364;HTU21D;54250;45.572;38.086;2022-07-29T11:59:25;35.59;48.90
67364;HTU21D;54250;45.572;38.086;2022-07-29T12:01:56;35.49;49.03
67364;HTU21D;54250;45.572;38.086;2022-07-29T12:04:23;35.37;49.02
67364;HTU21D;54250;45.572;38.086;2022-07-29T12:06:54;35.27;49.69
67364;HTU21D;54250;45.572;38.086;2022-07-29T12:09:21;35.19;49.44
67364;HTU21D;54250;45.572;38.086;2022-07-29T12:11:48;35.09;49.66
67364;HTU21D;54250;45.572;38.086;2022-07-29T12:14:31;35.01;50.49
67364;HTU21D;54250;45.572;38.086;2022-07-29T12:16:58;34.91;50.12
67364;HTU21D;54250;45.572;38.086;2022-07-29T12:19:25;34.76;49.79
67364;HTU21D;54250;45.572;38.086;2022-07-29T12:21:54;34.55;50.37
67364;HTU21D;54250;45.572;38.086;2022-07-29T12:24:21;34.44;50.62
67364;HTU21D;54250;45.572;38.086;2022-07-29T12:26:55;34.31;50.66
67364;HTU21D;54250;45.572;38.086;2022-07-29T12:29:22;34.27;50.27
67364;HTU21D;54250;45.572;38.086;2022-07-29T12:31:53;34.21;50.57
67364;HTU21D;54250;45.572;38.086;2022-07-29T12:34:23;34.12;50.40
67364;HTU21D;54250;45.572;38.086;2022-07-29T12:36:50;33.94;49.99
67364;HTU21D;54250;45.572;38.086;2022-07-29T12:39:16;33.77;50.71
67364;HTU21D;54250;45.572;38.086;2022-07-29T12:41:43;33.70;50.50
67364;HTU21D;54250;45.572;38.086;2022-07-29T12:44:10;33.55;50.21
67364;HTU21D;54250;45.572;38.086;2022-07-29T12:46:37;33.45;50.87
67364;HTU21D;54250;45.572;38.086;2022-07-29T12:49:03;33.41;51.25
67364;HTU21D;54250;45.572;38.086;2022-07-29T12:54:15;33.30;51.15
67364;HTU21D;54250;45.572;38.086;2022-07-29T12:56:43;33.23;51.68
67364;HTU21D;54250;45.572;38.086;2022-07-29T12:59:16;33.19;51.23
67364;HTU21D;54250;45.572;38.086;2022-07-29T13:01:44;33.14;51.18
67364;HTU21D;54250;45.572;38.086;2022-07-29T13:04:24;33.01;51.25
67364;HTU21D;54250;45.572;38.086;2022-07-29T13:07:02;32.84;51.50
67364;HTU21D;54250;45.572;38.086;2022-07-29T13:09:45;32.76;51.74
67364;HTU21D;54250;45.572;38.086;2022-07-29T13:12:14;32.73;52.26
67364;HTU21D;54250;45.572;38.086;2022-07-29T13:14:47;32.72;53.58
67364;HTU21D;54250;45.572;38.086;2022-07-29T13:19:52;32.54;53.45
67364;HTU21D;54250;45.572;38.086;2022-07-29T13:22:21;32.47;53.49
67364;HTU21D;54250;45.572;38.086;2022-07-29T13:24:55;32.43;53.78
67364;HTU21D;54250;45.572;38.086;2022-07-29T13:27:26;32.38;53.90
67364;HTU21D;54250;45.572;38.086;2022-07-29T13:29:54;32.29;53.97
67364;HTU21D;54250;45.572;38.086;2022-07-29T13:32:23;32.24;54.55
67364;HTU21D;54250;45.572;38.086;2022-07-29T13:34:51;32.17;54.68
67364;HTU21D;54250;45.572;38.086;2022-07-29T13:37:18;32.13;55.30
67364;HTU21D;54250;45.572;38.086;2022-07-29T13:39:44;32.13;55.38
67364;HTU21D;54250;45.572;38.086;2022-07-29T13:42:11;32.11;55.23
67364;HTU21D;54250;45.572;38.086;2022-07-29T13:44:40;32.07;55.41
67364;HTU21D;54250;45.572;38.086;2022-07-29T13:47:07;32.04;55.88
67364;HTU21D;54250;45.572;38.086;2022-07-29T13:49:33;32.01;56.78
67364;HTU21D;54250;45.572;38.086;2022-07-29T13:52:00;32.00;56.88
67364;HTU21D;54250;45.572;38.086;2022-07-29T13:54:26;31.97;57.29
67364;HTU21D;54250;45.572;38.086;2022-07-29T13:56:52;31.94;57.41
67364;HTU21D;54250;45.572;38.086;2022-07-29T13:59:18;31.85;57.20
67364;HTU21D;54250;45.572;38.086;2022-07-29T14:01:45;31.78;57.32
67364;HTU21D;54250;45.572;38.086;2022-07-29T14:04:11;31.68;57.74
67364;HTU21D;54250;45.572;38.086;2022-07-29T14:06:37;31.64;57.80
67364;HTU21D;54250;45.572;38.086;2022-07-29T14:09:04;31.55;57.89
67364;HTU21D;54250;45.572;38.086;2022-07-29T14:11:36;31.45;57.89
67364;HTU21D;54250;45.572;38.086;2022-07-29T14:14:04;31.41;58.21
67364;HTU21D;54250;45.572;38.086;2022-07-29T14:16:30;31.38;57.79
67364;HTU21D;54250;45.572;38.086;2022-07-29T14:18:56;31.34;58.09
67364;HTU21D;54250;45.572;38.086;2022-07-29T14:21:22;31.27;58.14
67364;HTU21D;54250;45.572;38.086;2022-07-29T14:23:48;31.23;58.23
67364;HTU21D;54250;45.572;38.086;2022-07-29T14:26:14;31.19;58.16
67364;HTU21D;54250;45.572;38.086;2022-07-29T14:28:41;31.14;58.61
67364;HTU21D;54250;45.572;38.086;2022-07-29T14:31:07;31.10;58.86
67364;HTU21D;54250;45.572;38.086;2022-07-29T14:33:33;31.07;58.89
67364;HTU21D;54250;45.572;38.086;2022-07-29T14:35:59;31.01;59.13
67364;HTU21D;54250;45.572;38.086;2022-07-29T14:38:25;30.97;59.51
67364;HTU21D;54250;45.572;38.086;2022-07-29T14:40:51;30.92;59.51
67364;HTU21D;54250;45.572;38.086;2022-07-29T14:43:17;30.87;59.80
67364;HTU21D;54250;45.572;38.086;2022-07-29T14:45:44;30.82;60.08
67364;HTU21D;54250;45.572;38.086;2022-07-29T14:48:10;30.76;60.76
67364;HTU21D;54250;45.572;38.086;2022-07-29T14:50:37;30.72;60.97
67364;HTU21D;54250;45.572;38.086;2022-07-29T14:53:04;30.67;61.27
67364;HTU21D;54250;45.572;38.086;2022-07-29T14:55:30;30.62;61.55
67364;HTU21D;54250;45.572;38.086;2022-07-29T14:57:56;30.54;61.82
67364;HTU21D;54250;45.572;38.086;2022-07-29T15:00:22;30.48;62.15
67364;HTU21D;54250;45.572;38.086;2022-07-29T15:02:48;30.42;62.34
67364;HTU21D;54250;45.572;38.086;2022-07-29T15:05:15;30.36;62.63
67364;HTU21D;54250;45.572;38.086;2022-07-29T15:07:41;30.30;62.92
67364;HTU21D;54250;45.572;38.086;2022-07-29T15:10:07;30.23;63.19
67364;HTU21D;54250;45.572;38.086;2022-07-29T15:12:33;30.17;63.60
67364;HTU21D;54250;45.572;38.086;2022-07-29T15:14:59;30.12;63.86
67364;HTU21D;54250;45.572;38.086;2022-07-29T15:17:25;30.05;64.30
67364;HTU21D;54250;45.572;38.086;2022-07-29T15:19:52;29.97;64.47
67364;HTU21D;54250;45.572;38.086;2022-07-29T15:22:18;29.89;64.83
67364;HTU21D;54250;45.572;38.086;2022-07-29T15:24:44;29.79;65.17
67364;HTU21D;54250;45.572;38.086;2022-07-29T15:27:10;29.73;65.73
67364;HTU21D;54250;45.572;38.086;2022-07-29T15:29:43;29.64;66.18
67364;HTU21D;54250;45.572;38.086;2022-07-29T15:32:09;29.56;66.50
67364;HTU21D;54250;45.572;38.086;2022-07-29T15:34:37;29.48;66.96
67364;HTU21D;54250;45.572;38.086;2022-07-29T15:37:04;29.41;67.24
67364;HTU21D;54250;45.572;38.086;2022-07-29T15:39:32;29.33;67.71
67364;HTU21D;54250;45.572;38.086;2022-07-29T15:41:58;29.26;67.97
67364;HTU21D;54250;45.572;38.086;2022-07-29T15:44:28;29.16;68.20
67364;HTU21D;54250;45.572;38.086;2022-07-29T15:46:54;29.07;68.49
67364;HTU21D;54250;45.572;38.086;2022-07-29T15:49:36;29.00;68.81
67364;HTU21D;54250;45.572;38.086;2022-07-29T15:52:06;28.90;69.06
67364;HTU21D;54250;45.572;38.086;2022-07-29T15:54:34;28.82;69.36